This is the latest recevied weather packets stored in our database for station/object N0THY. If no packets are shown the sender has not sent any weather packets the latest 10 day(s).
| Time | Temp. | Humidity | Pressure | Rain* | Wind** | Luminosity | Snow |
|---|---|---|---|---|---|---|---|
| 1777557059 | 6.11° C | 71% | 1018.5 hPa | 0 mm | - | - | - |
| 1777556156 | 4.44° C | 76% | 1018.5 hPa | 0 mm | - | - | - |
| 1777555253 | 2.22° C | 80% | 1018.5 hPa | 0 mm | - | - | - |
| 1777554350 | 0.56° C | 83% | 1018.5 hPa | 0 mm | - | - | - |
| 1777553448 | 0.56° C | 84% | 1018.4 hPa | 0 mm | - | - | - |
| 1777552545 | 0.56° C | 83% | 1018.3 hPa | 0 mm | - | - | - |
| 1777551642 | 0.56° C | 81% | 1018.1 hPa | 0 mm | - | - | - |
| 1777550739 | 0.56° C | 81% | 1017.9 hPa | 0 mm | - | - | - |
| 1777549836 | 1.11° C | 81% | 1018 hPa | 0 mm | - | - | - |
| 1777548933 | 1.11° C | 80% | 1018 hPa | 1.02 mm | - | - | - |
| 1777548030 | 1.11° C | 79% | 1018 hPa | 1.02 mm | - | - | - |
| 1777547127 | 1.11° C | 78% | 1018 hPa | 1.02 mm | - | - | - |
| 1777546224 | 1.11° C | 79% | 1018 hPa | 1.02 mm | - | - | - |
| 1777545321 | 1.11° C | 77% | 1018.2 hPa | 1.02 mm | - | - | - |
| 1777544418 | 1.67° C | 76% | 1018 hPa | 1.02 mm | - | - | - |
| 1777543515 | 1.67° C | 76% | 1018.1 hPa | 1.02 mm | - | - | - |
| 1777542612 | 2.22° C | 74% | 1017.9 hPa | 1.02 mm | - | - | - |
| 1777541709 | 2.78° C | 74% | 1017.9 hPa | 1.02 mm | - | - | - |
| 1777540806 | 3.33° C | 67% | 1017.9 hPa | 1.02 mm | - | - | - |
| 1777539904 | 3.33° C | 66% | 1017.8 hPa | 1.02 mm | - | - | - |
| 1777539000 | 3.33° C | 67% | 1017.8 hPa | 1.02 mm | - | - | - |
| 1777538097 | 3.89° C | 66% | 1017.8 hPa | 1.02 mm | - | - | - |
| 1777537195 | 3.89° C | 66% | 1017.8 hPa | 1.02 mm | - | - | - |
| 1777536292 | 3.89° C | 65% | 1017.8 hPa | 1.02 mm | - | - | - |
| 1777535389 | 3.89° C | 66% | 1017.9 hPa | 1.02 mm | - | - | - |
* Rain since midnight (hover to see other rain measurements)
** Current wind speed in m/s (hover to see current wind gust speed)